sensor_id;sensor_type;location;lat;lon;timestamp;pressure;altitude;pressure_sealevel;temperature;humidity
11053;BME280;55230;42.602;23.470;2023-12-28T00:02:11;94574.28;;;2.48;84.33
11053;BME280;55230;42.602;23.470;2023-12-28T00:04:38;94567.78;;;2.26;85.65
11053;BME280;55230;42.602;23.470;2023-12-28T00:07:03;94573.13;;;2.25;83.97
11053;BME280;55230;42.602;23.470;2023-12-28T00:09:29;94574.41;;;2.27;83.64
11053;BME280;55230;42.602;23.470;2023-12-28T00:11:55;94570.41;;;2.16;84.84
11053;BME280;55230;42.602;23.470;2023-12-28T00:14:20;94569.66;;;2.05;85.42
11053;BME280;55230;42.602;23.470;2023-12-28T00:16:46;94577.38;;;2.00;85.39
11053;BME280;55230;42.602;23.470;2023-12-28T00:19:11;94575.59;;;2.01;85.41
11053;BME280;55230;42.602;23.470;2023-12-28T00:21:36;94584.53;;;1.98;85.28
11053;BME280;55230;42.602;23.470;2023-12-28T00:24:02;94559.88;;;1.68;86.64
11053;BME280;55230;42.602;23.470;2023-12-28T00:26:27;94594.31;;;1.76;86.36
11053;BME280;55230;42.602;23.470;2023-12-28T00:28:53;94594.84;;;1.68;87.26
11053;BME280;55230;42.602;23.470;2023-12-28T00:31:18;94585.16;;;1.65;86.90
11053;BME280;55230;42.602;23.470;2023-12-28T00:33:43;94581.88;;;1.59;87.10
11053;BME280;55230;42.602;23.470;2023-12-28T00:36:09;94577.03;;;1.53;87.69
11053;BME280;55230;42.602;23.470;2023-12-28T00:38:34;94583.41;;;1.60;87.50
11053;BME280;55230;42.602;23.470;2023-12-28T00:41:00;94573.69;;;1.62;87.08
11053;BME280;55230;42.602;23.470;2023-12-28T00:43:25;94594.34;;;1.66;86.77
11053;BME280;55230;42.602;23.470;2023-12-28T00:45:51;94585.72;;;1.52;86.67
11053;BME280;55230;42.602;23.470;2023-12-28T00:48:16;94588.53;;;1.50;87.49
11053;BME280;55230;42.602;23.470;2023-12-28T00:50:41;94581.91;;;1.49;87.96
11053;BME280;55230;42.602;23.470;2023-12-28T00:53:07;94581.88;;;1.54;88.37
11053;BME280;55230;42.602;23.470;2023-12-28T00:55:32;94592.63;;;1.41;88.42
11053;BME280;55230;42.602;23.470;2023-12-28T00:57:58;94596.97;;;1.35;89.09
11053;BME280;55230;42.602;23.470;2023-12-28T01:00:23;94601.03;;;1.42;88.70
11053;BME280;55230;42.602;23.470;2023-12-28T01:02:49;94593.41;;;1.36;88.50
11053;BME280;55230;42.602;23.470;2023-12-28T01:05:15;94599.50;;;1.40;88.69
11053;BME280;55230;42.602;23.470;2023-12-28T01:07:40;94602.81;;;1.41;88.63
11053;BME280;55230;42.602;23.470;2023-12-28T01:10:06;94594.41;;;1.35;89.03
11053;BME280;55230;42.602;23.470;2023-12-28T01:12:33;94611.75;;;1.49;88.71
11053;BME280;55230;42.602;23.470;2023-12-28T01:14:58;94601.28;;;1.45;88.33
11053;BME280;55230;42.602;23.470;2023-12-28T01:17:24;94599.00;;;1.44;88.75
11053;BME280;55230;42.602;23.470;2023-12-28T01:19:49;94601.50;;;1.54;87.94
11053;BME280;55230;42.602;23.470;2023-12-28T01:22:15;94601.78;;;1.52;88.53
11053;BME280;55230;42.602;23.470;2023-12-28T01:24:40;94598.44;;;1.57;88.48
11053;BME280;55230;42.602;23.470;2023-12-28T01:27:06;94598.75;;;1.50;87.61
11053;BME280;55230;42.602;23.470;2023-12-28T01:29:31;94598.19;;;1.53;87.83
11053;BME280;55230;42.602;23.470;2023-12-28T01:31:58;94594.88;;;1.58;88.20
11053;BME280;55230;42.602;23.470;2023-12-28T01:34:23;94600.47;;;1.60;88.29
11053;BME280;55230;42.602;23.470;2023-12-28T01:36:48;94595.88;;;1.62;88.24
11053;BME280;55230;42.602;23.470;2023-12-28T01:39:14;94595.63;;;1.58;88.04
11053;BME280;55230;42.602;23.470;2023-12-28T01:41:40;94592.84;;;1.55;88.21
11053;BME280;55230;42.602;23.470;2023-12-28T01:44:06;94579.59;;;1.53;88.04
11053;BME280;55230;42.602;23.470;2023-12-28T01:46:32;94582.38;;;1.56;87.77
11053;BME280;55230;42.602;23.470;2023-12-28T01:48:58;94583.16;;;1.57;87.92
11053;BME280;55230;42.602;23.470;2023-12-28T01:51:24;94586.19;;;1.64;87.77
11053;BME280;55230;42.602;23.470;2023-12-28T01:53:51;94586.41;;;1.72;87.66
11053;BME280;55230;42.602;23.470;2023-12-28T01:56:18;94581.31;;;1.72;87.49
11053;BME280;55230;42.602;23.470;2023-12-28T01:58:46;94578.22;;;1.81;87.78
11053;BME280;55230;42.602;23.470;2023-12-28T02:01:14;94582.56;;;1.80;87.80
11053;BME280;55230;42.602;23.470;2023-12-28T02:03:39;94587.16;;;1.78;87.04
11053;BME280;55230;42.602;23.470;2023-12-28T02:06:07;94574.91;;;1.75;87.00
11053;BME280;55230;42.602;23.470;2023-12-28T02:08:32;94580.28;;;1.68;86.85
11053;BME280;55230;42.602;23.470;2023-12-28T02:10:58;94575.94;;;1.69;87.06
11053;BME280;55230;42.602;23.470;2023-12-28T02:13:24;94574.47;;;1.63;87.19
11053;BME280;55230;42.602;23.470;2023-12-28T02:16:15;94580.28;;;1.68;87.09
11053;BME280;55230;42.602;23.470;2023-12-28T02:18:49;94585.38;;;1.68;87.34
11053;BME280;55230;42.602;23.470;2023-12-28T02:21:17;94583.09;;;1.72;87.92
11053;BME280;55230;42.602;23.470;2023-12-28T02:23:49;94584.13;;;1.71;87.45
11053;BME280;55230;42.602;23.470;2023-12-28T02:26:18;94579.53;;;1.68;86.62
11053;BME280;55230;42.602;23.470;2023-12-28T02:28:45;94576.00;;;1.64;85.94
11053;BME280;55230;42.602;23.470;2023-12-28T02:31:27;94568.88;;;1.56;85.89
11053;BME280;55230;42.602;23.470;2023-12-28T02:33:58;94577.78;;;1.58;85.39
11053;BME280;55230;42.602;23.470;2023-12-28T02:36:26;94560.72;;;1.54;86.08
11053;BME280;55230;42.602;23.470;2023-12-28T02:38:52;94568.16;;;1.40;85.98
11053;BME280;55230;42.602;23.470;2023-12-28T02:41:21;94569.94;;;1.34;86.71
11053;BME280;55230;42.602;23.470;2023-12-28T02:43:48;94564.63;;;1.26;86.17
11053;BME280;55230;42.602;23.470;2023-12-28T02:46:13;94567.47;;;1.14;87.23
11053;BME280;55230;42.602;23.470;2023-12-28T02:48:39;94573.06;;;1.06;87.70
11053;BME280;55230;42.602;23.470;2023-12-28T02:51:04;94575.88;;;1.15;87.97
11053;BME280;55230;42.602;23.470;2023-12-28T02:53:29;94571.50;;;1.25;87.71
11053;BME280;55230;42.602;23.470;2023-12-28T02:55:55;94570.47;;;1.31;86.91
11053;BME280;55230;42.602;23.470;2023-12-28T02:58:20;94559.78;;;1.29;87.07
11053;BME280;55230;42.602;23.470;2023-12-28T03:00:46;94563.59;;;1.27;87.23
11053;BME280;55230;42.602;23.470;2023-12-28T03:03:11;94558.00;;;1.20;87.09
11053;BME280;55230;42.602;23.470;2023-12-28T03:05:37;94550.38;;;1.15;87.20
11053;BME280;55230;42.602;23.470;2023-12-28T03:08:02;94531.75;;;1.19;86.88
11053;BME280;55230;42.602;23.470;2023-12-28T03:10:28;94546.78;;;1.21;86.93
11053;BME280;55230;42.602;23.470;2023-12-28T03:12:53;94543.47;;;1.20;87.42
11053;BME280;55230;42.602;23.470;2023-12-28T03:15:18;94536.41;;;0.97;87.61
11053;BME280;55230;42.602;23.470;2023-12-28T03:17:44;94544.28;;;1.11;87.72
11053;BME280;55230;42.602;23.470;2023-12-28T03:20:09;94545.81;;;1.01;88.62
11053;BME280;55230;42.602;23.470;2023-12-28T03:22:35;94548.34;;;1.12;89.04
11053;BME280;55230;42.602;23.470;2023-12-28T03:25:00;94539.44;;;1.04;89.67
11053;BME280;55230;42.602;23.470;2023-12-28T03:27:26;94542.53;;;0.91;88.68
11053;BME280;55230;42.602;23.470;2023-12-28T03:29:51;94514.00;;;0.74;91.05
11053;BME280;55230;42.602;23.470;2023-12-28T03:32:17;94546.34;;;0.93;89.95
11053;BME280;55230;42.602;23.470;2023-12-28T03:34:42;94535.41;;;0.83;89.81
11053;BME280;55230;42.602;23.470;2023-12-28T03:37:07;94540.50;;;0.78;90.13
11053;BME280;55230;42.602;23.470;2023-12-28T03:39:34;94522.94;;;0.66;88.82
11053;BME280;55230;42.602;23.470;2023-12-28T03:42:00;94551.44;;;0.53;88.75
11053;BME280;55230;42.602;23.470;2023-12-28T03:44:25;94561.66;;;0.58;88.44
11053;BME280;55230;42.602;23.470;2023-12-28T03:46:50;94569.53;;;0.61;88.62
11053;BME280;55230;42.602;23.470;2023-12-28T03:49:20;94574.91;;;0.50;88.25
11053;BME280;55230;42.602;23.470;2023-12-28T03:51:47;94580.22;;;0.53;88.70
11053;BME280;55230;42.602;23.470;2023-12-28T03:54:16;94587.88;;;0.53;89.49
11053;BME280;55230;42.602;23.470;2023-12-28T03:56:42;94581.25;;;0.57;89.15
11053;BME280;55230;42.602;23.470;2023-12-28T03:59:08;94584.31;;;0.59;89.33
11053;BME280;55230;42.602;23.470;2023-12-28T04:01:34;94582.00;;;0.58;88.68
11053;BME280;55230;42.602;23.470;2023-12-28T04:03:59;94590.16;;;0.70;89.89
11053;BME280;55230;42.602;23.470;2023-12-28T04:06:24;94590.94;;;0.65;89.44
11053;BME280;55230;42.602;23.470;2023-12-28T04:08:50;94594.22;;;0.56;89.14
11053;BME280;55230;42.602;23.470;2023-12-28T04:11:15;94589.66;;;0.53;89.50
11053;BME280;55230;42.602;23.470;2023-12-28T04:13:41;94578.72;;;0.47;89.78
11053;BME280;55230;42.602;23.470;2023-12-28T04:16:06;94571.59;;;0.49;90.06
11053;BME280;55230;42.602;23.470;2023-12-28T04:18:32;94572.59;;;0.48;89.98
11053;BME280;55230;42.602;23.470;2023-12-28T04:20:58;94561.13;;;0.35;89.98
11053;BME280;55230;42.602;23.470;2023-12-28T04:23:23;94569.28;;;0.43;90.87
11053;BME280;55230;42.602;23.470;2023-12-28T04:25:49;94575.66;;;0.45;90.54
11053;BME280;55230;42.602;23.470;2023-12-28T04:28:14;94575.91;;;0.54;91.48
11053;BME280;55230;42.602;23.470;2023-12-28T04:30:40;94584.81;;;0.56;91.48
11053;BME280;55230;42.602;23.470;2023-12-28T04:33:05;94591.19;;;0.59;90.63
11053;BME280;55230;42.602;23.470;2023-12-28T04:35:30;94581.00;;;0.54;90.29
11053;BME280;55230;42.602;23.470;2023-12-28T04:37:56;94590.91;;;0.55;89.58
11053;BME280;55230;42.602;23.470;2023-12-28T04:40:21;94574.13;;;0.49;90.90
11053;BME280;55230;42.602;23.470;2023-12-28T04:42:47;94576.16;;;0.47;90.81
11053;BME280;55230;42.602;23.470;2023-12-28T04:45:13;94570.78;;;0.39;90.14
11053;BME280;55230;42.602;23.470;2023-12-28T04:47:39;94578.19;;;0.40;90.36
11053;BME280;55230;42.602;23.470;2023-12-28T04:50:05;94562.91;;;0.35;89.04
11053;BME280;55230;42.602;23.470;2023-12-28T04:52:31;94578.69;;;0.42;89.29
11053;BME280;55230;42.602;23.470;2023-12-28T04:54:57;94582.00;;;0.38;89.92
11053;BME280;55230;42.602;23.470;2023-12-28T04:57:22;94575.63;;;0.30;90.38
11053;BME280;55230;42.602;23.470;2023-12-28T04:59:53;94579.69;;;0.36;89.90
11053;BME280;55230;42.602;23.470;2023-12-28T05:02:18;94579.72;;;0.46;90.25
11053;BME280;55230;42.602;23.470;2023-12-28T05:04:44;94570.56;;;0.45;90.24
11053;BME280;55230;42.602;23.470;2023-12-28T05:07:09;94564.44;;;0.46;90.43
11053;BME280;55230;42.602;23.470;2023-12-28T05:09:35;94566.22;;;0.51;89.04
11053;BME280;55230;42.602;23.470;2023-12-28T05:12:01;94564.94;;;0.53;89.35
11053;BME280;55230;42.602;23.470;2023-12-28T05:14:27;94579.22;;;0.54;89.29
11053;BME280;55230;42.602;23.470;2023-12-28T05:16:53;94579.22;;;0.54;89.56
11053;BME280;55230;42.602;23.470;2023-12-28T05:19:18;94578.44;;;0.54;89.84
11053;BME280;55230;42.602;23.470;2023-12-28T05:21:43;94577.94;;;0.57;90.20
11053;BME280;55230;42.602;23.470;2023-12-28T05:24:09;94586.34;;;0.47;89.46
11053;BME280;55230;42.602;23.470;2023-12-28T05:26:34;94575.16;;;0.48;89.13
11053;BME280;55230;42.602;23.470;2023-12-28T05:29:00;94594.50;;;0.49;89.31
11053;BME280;55230;42.602;23.470;2023-12-28T05:31:25;94588.38;;;0.45;88.65
11053;BME280;55230;42.602;23.470;2023-12-28T05:33:51;94575.88;;;0.39;89.79
11053;BME280;55230;42.602;23.470;2023-12-28T05:36:16;94589.91;;;0.41;88.50
11053;BME280;55230;42.602;23.470;2023-12-28T05:38:42;94578.94;;;0.41;88.62
11053;BME280;55230;42.602;23.470;2023-12-28T05:41:09;94592.94;;;0.38;89.10
11053;BME280;55230;42.602;23.470;2023-12-28T05:43:36;94593.19;;;0.31;89.55
11053;BME280;55230;42.602;23.470;2023-12-28T05:46:01;94593.69;;;0.28;89.23
11053;BME280;55230;42.602;23.470;2023-12-28T05:48:27;94597.00;;;0.24;88.82
11053;BME280;55230;42.602;23.470;2023-12-28T05:50:52;94600.06;;;0.16;88.54
11053;BME280;55230;42.602;23.470;2023-12-28T05:53:17;94595.94;;;0.10;88.82
11053;BME280;55230;42.602;23.470;2023-12-28T05:55:43;94603.28;;;0.01;89.41
11053;BME280;55230;42.602;23.470;2023-12-28T05:58:11;94605.63;;;0.08;90.31
11053;BME280;55230;42.602;23.470;2023-12-28T06:00:37;94606.63;;;0.07;89.92
11053;BME280;55230;42.602;23.470;2023-12-28T06:03:04;94595.16;;;-0.01;89.72
11053;BME280;55230;42.602;23.470;2023-12-28T06:09:27;94608.91;;;0.08;90.10
11053;BME280;55230;42.602;23.470;2023-12-28T06:22:37;94556.97;;;-0.11;90.00
11053;BME280;55230;42.602;23.470;2023-12-28T06:36:34;94613.81;;;0.40;90.27
11053;BME280;55230;42.602;23.470;2023-12-28T06:38:59;94615.13;;;0.48;90.11
11053;BME280;55230;42.602;23.470;2023-12-28T06:41:25;94618.94;;;0.60;90.72
11053;BME280;55230;42.602;23.470;2023-12-28T06:43:52;94618.69;;;0.62;90.68
11053;BME280;55230;42.602;23.470;2023-12-28T06:46:18;94631.69;;;0.70;89.77
11053;BME280;55230;42.602;23.470;2023-12-28T06:48:44;94629.91;;;0.76;89.54
11053;BME280;55230;42.602;23.470;2023-12-28T06:51:10;94634.25;;;0.81;89.46
11053;BME280;55230;42.602;23.470;2023-12-28T07:05:02;94608.22;;;1.29;87.52
11053;BME280;55230;42.602;23.470;2023-12-28T07:18:31;94644.50;;;2.50;83.77
11053;BME280;55230;42.602;23.470;2023-12-28T07:20:57;94639.09;;;2.96;83.02
11053;BME280;55230;42.602;23.470;2023-12-28T07:23:22;94623.44;;;3.31;82.38
11053;BME280;55230;42.602;23.470;2023-12-28T07:25:47;94621.44;;;3.52;80.00
11053;BME280;55230;42.602;23.470;2023-12-28T07:28:13;94623.25;;;3.75;78.57
11053;BME280;55230;42.602;23.470;2023-12-28T07:30:38;94621.66;;;3.79;77.33
11053;BME280;55230;42.602;23.470;2023-12-28T07:33:04;94628.78;;;4.06;77.64
11053;BME280;55230;42.602;23.470;2023-12-28T07:35:29;94626.59;;;4.18;76.20
11053;BME280;55230;42.602;23.470;2023-12-28T07:37:55;94630.47;;;4.35;76.42
11053;BME280;55230;42.602;23.470;2023-12-28T07:40:20;94628.31;;;4.42;75.41
11053;BME280;55230;42.602;23.470;2023-12-28T07:42:45;94639.06;;;4.44;75.60
11053;BME280;55230;42.602;23.470;2023-12-28T07:45:11;94638.78;;;4.64;75.80
11053;BME280;55230;42.602;23.470;2023-12-28T07:47:36;94637.59;;;4.75;74.31
11053;BME280;55230;42.602;23.470;2023-12-28T07:50:02;94631.84;;;4.83;75.29
11053;BME280;55230;42.602;23.470;2023-12-28T07:52:28;94628.63;;;4.91;75.11
11053;BME280;55230;42.602;23.470;2023-12-28T07:54:54;94639.34;;;4.42;76.28
11053;BME280;55230;42.602;23.470;2023-12-28T07:57:19;94636.22;;;4.64;76.64
11053;BME280;55230;42.602;23.470;2023-12-28T07:59:44;94639.34;;;4.80;75.45
11053;BME280;55230;42.602;23.470;2023-12-28T08:02:10;94640.81;;;4.67;77.00
11053;BME280;55230;42.602;23.470;2023-12-28T08:04:35;94631.25;;;3.93;78.91
11053;BME280;55230;42.602;23.470;2023-12-28T08:07:01;94641.66;;;4.01;77.07
11053;BME280;55230;42.602;23.470;2023-12-28T08:09:26;94642.16;;;3.79;79.08
11053;BME280;55230;42.602;23.470;2023-12-28T08:11:52;94638.31;;;3.53;80.69
11053;BME280;55230;42.602;23.470;2023-12-28T08:14:17;94637.72;;;3.61;80.41
11053;BME280;55230;42.602;23.470;2023-12-28T08:16:43;94648.28;;;3.26;82.02
11053;BME280;55230;42.602;23.470;2023-12-28T08:19:08;94639.84;;;3.25;81.71
11053;BME280;55230;42.602;23.470;2023-12-28T08:21:33;94652.06;;;3.33;82.34
11053;BME280;55230;42.602;23.470;2023-12-28T08:23:59;94646.41;;;3.36;82.81
11053;BME280;55230;42.602;23.470;2023-12-28T08:26:24;94649.16;;;3.16;82.74
11053;BME280;55230;42.602;23.470;2023-12-28T08:28:49;94643.91;;;3.31;83.31
11053;BME280;55230;42.602;23.470;2023-12-28T08:31:15;94636.31;;;3.50;82.68
11053;BME280;55230;42.602;23.470;2023-12-28T08:33:40;94630.75;;;3.91;80.92
11053;BME280;55230;42.602;23.470;2023-12-28T08:36:09;94633.69;;;4.03;80.26
11053;BME280;55230;42.602;23.470;2023-12-28T08:38:35;94629.69;;;4.15;79.91
11053;BME280;55230;42.602;23.470;2023-12-28T08:41:00;94620.31;;;3.63;81.37
11053;BME280;55230;42.602;23.470;2023-12-28T08:43:29;94622.06;;;3.68;81.32
11053;BME280;55230;42.602;23.470;2023-12-28T08:45:54;94626.59;;;3.71;82.61
11053;BME280;55230;42.602;23.470;2023-12-28T08:48:20;94621.56;;;3.66;83.13
11053;BME280;55230;42.602;23.470;2023-12-28T08:50:45;94618.06;;;3.80;82.55
11053;BME280;55230;42.602;23.470;2023-12-28T08:53:11;94604.00;;;3.54;83.57
11053;BME280;55230;42.602;23.470;2023-12-28T08:55:36;94608.59;;;3.81;81.63
11053;BME280;55230;42.602;23.470;2023-12-28T08:58:01;94597.00;;;4.07;81.47
11053;BME280;55230;42.602;23.470;2023-12-28T09:00:27;94603.09;;;4.11;80.31
11053;BME280;55230;42.602;23.470;2023-12-28T09:02:53;94585.41;;;4.34;81.09
11053;BME280;55230;42.602;23.470;2023-12-28T09:05:18;94591.91;;;4.45;79.61
11053;BME280;55230;42.602;23.470;2023-12-28T09:07:44;94599.03;;;4.10;82.69
11053;BME280;55230;42.602;23.470;2023-12-28T09:10:13;94597.56;;;4.04;82.08
11053;BME280;55230;42.602;23.470;2023-12-28T09:12:40;94602.19;;;3.83;84.24
11053;BME280;55230;42.602;23.470;2023-12-28T09:15:06;94591.59;;;3.42;85.35
11053;BME280;55230;42.602;23.470;2023-12-28T09:17:31;94592.22;;;3.58;85.24
11053;BME280;55230;42.602;23.470;2023-12-28T09:19:57;94585.53;;;3.62;84.11
11053;BME280;55230;42.602;23.470;2023-12-28T09:22:23;94590.63;;;3.62;84.89
11053;BME280;55230;42.602;23.470;2023-12-28T09:24:48;94588.44;;;3.74;83.98
11053;BME280;55230;42.602;23.470;2023-12-28T09:27:14;94584.72;;;3.85;84.23
11053;BME280;55230;42.602;23.470;2023-12-28T09:29:39;94576.84;;;3.82;84.20
11053;BME280;55230;42.602;23.470;2023-12-28T09:32:05;94567.34;;;4.76;81.44
11053;BME280;55230;42.602;23.470;2023-12-28T09:34:30;94565.19;;;5.30;77.44
11053;BME280;55230;42.602;23.470;2023-12-28T09:36:56;94564.00;;;4.43;79.56
11053;BME280;55230;42.602;23.470;2023-12-28T09:39:21;94553.81;;;4.38;80.35
11053;BME280;55230;42.602;23.470;2023-12-28T09:56:11;94541.31;;;5.56;76.43
11053;BME280;55230;42.602;23.470;2023-12-28T10:06:23;94522.19;;;5.08;79.85
11053;BME280;55230;42.602;23.470;2023-12-28T10:08:48;94528.97;;;5.45;77.46
11053;BME280;55230;42.602;23.470;2023-12-28T10:11:18;94520.13;;;5.37;78.10
11053;BME280;55230;42.602;23.470;2023-12-28T10:13:44;94510.44;;;5.20;78.33
11053;BME280;55230;42.602;23.470;2023-12-28T10:16:11;94499.78;;;5.27;78.25
11053;BME280;55230;42.602;23.470;2023-12-28T10:18:43;94498.28;;;5.40;78.60
11053;BME280;55230;42.602;23.470;2023-12-28T10:21:09;94490.66;;;5.62;77.00
11053;BME280;55230;42.602;23.470;2023-12-28T10:23:35;94481.44;;;6.55;74.07
11053;BME280;55230;42.602;23.470;2023-12-28T10:26:00;94480.44;;;7.35;70.85
11053;BME280;55230;42.602;23.470;2023-12-28T10:28:27;94482.34;;;7.78;69.24
11053;BME280;55230;42.602;23.470;2023-12-28T10:30:55;94472.03;;;8.21;66.58
11053;BME280;55230;42.602;23.470;2023-12-28T10:33:21;94477.94;;;7.22;69.78
11053;BME280;55230;42.602;23.470;2023-12-28T10:35:50;94477.13;;;6.73;72.48
11053;BME280;55230;42.602;23.470;2023-12-28T10:38:16;94475.00;;;6.44;72.76
11053;BME280;55230;42.602;23.470;2023-12-28T10:40:44;94472.81;;;6.51;73.59
11053;BME280;55230;42.602;23.470;2023-12-28T10:43:11;94475.38;;;6.51;74.47
11053;BME280;55230;42.602;23.470;2023-12-28T10:45:39;94465.56;;;6.53;73.87
11053;BME280;55230;42.602;23.470;2023-12-28T10:48:06;94458.28;;;6.55;73.75
11053;BME280;55230;42.602;23.470;2023-12-28T10:50:41;94439.03;;;7.15;70.57
11053;BME280;55230;42.602;23.470;2023-12-28T10:56:42;94438.63;;;6.51;73.67
11053;BME280;55230;42.602;23.470;2023-12-28T10:59:35;94425.88;;;6.77;72.03
11053;BME280;55230;42.602;23.470;2023-12-28T11:02:05;94426.47;;;7.13;70.40
11053;BME280;55230;42.602;23.470;2023-12-28T11:04:41;94415.03;;;6.88;72.00
11053;BME280;55230;42.602;23.470;2023-12-28T11:07:09;94406.59;;;7.05;71.27
11053;BME280;55230;42.602;23.470;2023-12-28T11:09:36;94402.47;;;7.35;70.94
11053;BME280;55230;42.602;23.470;2023-12-28T11:12:03;94403.09;;;8.01;67.60
11053;BME280;55230;42.602;23.470;2023-12-28T11:14:34;94403.84;;;8.19;65.71
11053;BME280;55230;42.602;23.470;2023-12-28T11:16:59;94383.16;;;7.07;70.49
11053;BME280;55230;42.602;23.470;2023-12-28T11:19:29;94385.78;;;7.32;69.69
11053;BME280;55230;42.602;23.470;2023-12-28T11:21:55;94395.50;;;7.79;69.11
11053;BME280;55230;42.602;23.470;2023-12-28T11:24:22;94385.34;;;7.48;69.85
11053;BME280;55230;42.602;23.470;2023-12-28T11:26:55;94392.00;;;7.40;69.02
11053;BME280;55230;42.602;23.470;2023-12-28T11:29:21;94383.41;;;7.53;69.81
11053;BME280;55230;42.602;23.470;2023-12-28T11:31:57;94380.19;;;7.74;69.02
11053;BME280;55230;42.602;23.470;2023-12-28T11:34:28;94386.41;;;7.47;69.88
11053;BME280;55230;42.602;23.470;2023-12-28T11:36:55;94381.06;;;7.26;70.39
11053;BME280;55230;42.602;23.470;2023-12-28T11:39:41;94381.09;;;7.43;69.57
11053;BME280;55230;42.602;23.470;2023-12-28T11:42:10;94374.38;;;7.08;70.53
11053;BME280;55230;42.602;23.470;2023-12-28T11:44:42;94379.09;;;7.23;69.75
11053;BME280;55230;42.602;23.470;2023-12-28T11:47:16;94370.81;;;7.34;70.13
11053;BME280;55230;42.602;23.470;2023-12-28T11:49:42;94367.59;;;7.12;69.91
11053;BME280;55230;42.602;23.470;2023-12-28T11:52:22;94372.31;;;7.44;70.11
11053;BME280;55230;42.602;23.470;2023-12-28T11:54:49;94364.16;;;7.33;69.61
11053;BME280;55230;42.602;23.470;2023-12-28T11:57:15;94358.41;;;7.62;68.58
11053;BME280;55230;42.602;23.470;2023-12-28T11:59:41;94369.88;;;7.91;68.45
11053;BME280;55230;42.602;23.470;2023-12-28T12:02:07;94355.38;;;7.86;67.92
11053;BME280;55230;42.602;23.470;2023-12-28T12:04:34;94349.38;;;8.37;67.22
11053;BME280;55230;42.602;23.470;2023-12-28T12:07:03;94342.25;;;8.72;64.71
11053;BME280;55230;42.602;23.470;2023-12-28T12:09:32;94346.38;;;9.24;64.99
11053;BME280;55230;42.602;23.470;2023-12-28T12:12:01;94339.97;;;9.51;63.66
11053;BME280;55230;42.602;23.470;2023-12-28T12:14:27;94331.03;;;9.69;62.08
11053;BME280;55230;42.602;23.470;2023-12-28T12:16:54;94324.84;;;9.61;63.49
11053;BME280;55230;42.602;23.470;2023-12-28T12:19:24;94323.41;;;9.52;62.18
11053;BME280;55230;42.602;23.470;2023-12-28T12:21:53;94331.88;;;9.10;63.48
11053;BME280;55230;42.602;23.470;2023-12-28T12:24:19;94331.72;;;8.86;65.52
11053;BME280;55230;42.602;23.470;2023-12-28T12:26:46;94329.47;;;9.05;63.75
11053;BME280;55230;42.602;23.470;2023-12-28T12:29:12;94330.59;;;8.96;63.70
11053;BME280;55230;42.602;23.470;2023-12-28T12:31:38;94327.38;;;9.49;63.20
11053;BME280;55230;42.602;23.470;2023-12-28T12:34:07;94333.47;;;9.65;61.39
11053;BME280;55230;42.602;23.470;2023-12-28T12:36:33;94329.63;;;9.51;61.86
11053;BME280;55230;42.602;23.470;2023-12-28T12:38:59;94324.88;;;9.73;60.84
11053;BME280;55230;42.602;23.470;2023-12-28T12:41:26;94326.88;;;9.89;61.28
11053;BME280;55230;42.602;23.470;2023-12-28T12:43:52;94327.38;;;9.70;60.37
11053;BME280;55230;42.602;23.470;2023-12-28T12:46:17;94318.81;;;8.86;63.91
11053;BME280;55230;42.602;23.470;2023-12-28T12:48:43;94333.34;;;8.91;63.15
11053;BME280;55230;42.602;23.470;2023-12-28T12:51:08;94329.19;;;8.78;63.58
11053;BME280;55230;42.602;23.470;2023-12-28T12:53:34;94333.28;;;8.40;65.47
11053;BME280;55230;42.602;23.470;2023-12-28T12:56:00;94327.13;;;8.16;66.38
11053;BME280;55230;42.602;23.470;2023-12-28T12:58:26;94340.00;;;8.07;66.60
11053;BME280;55230;42.602;23.470;2023-12-28T13:00:52;94338.22;;;7.90;67.61
11053;BME280;55230;42.602;23.470;2023-12-28T13:03:20;94339.63;;;7.70;67.84
11053;BME280;55230;42.602;23.470;2023-12-28T13:05:45;94332.03;;;7.57;68.06
11053;BME280;55230;42.602;23.470;2023-12-28T13:08:10;94328.25;;;7.37;68.67
11053;BME280;55230;42.602;23.470;2023-12-28T13:10:36;94329.75;;;7.29;67.94
11053;BME280;55230;42.602;23.470;2023-12-28T13:13:01;94329.59;;;7.17;68.53
11053;BME280;55230;42.602;23.470;2023-12-28T13:15:27;94335.47;;;7.00;68.83
11053;BME280;55230;42.602;23.470;2023-12-28T13:17:52;94324.41;;;6.91;68.92
11053;BME280;55230;42.602;23.470;2023-12-28T13:20:18;94325.28;;;6.78;68.37
11053;BME280;55230;42.602;23.470;2023-12-28T13:22:43;94320.91;;;6.87;68.13
11053;BME280;55230;42.602;23.470;2023-12-28T13:25:09;94319.84;;;6.80;67.86
11053;BME280;55230;42.602;23.470;2023-12-28T13:27:34;94315.00;;;6.39;68.05
11053;BME280;55230;42.602;23.470;2023-12-28T13:30:00;94326.06;;;6.39;68.24
11053;BME280;55230;42.602;23.470;2023-12-28T13:32:25;94326.06;;;6.39;68.36
11053;BME280;55230;42.602;23.470;2023-12-28T13:34:51;94321.81;;;6.35;68.79
11053;BME280;55230;42.602;23.470;2023-12-28T13:37:17;94314.88;;;6.35;68.18
11053;BME280;55230;42.602;23.470;2023-12-28T13:39:43;94317.09;;;6.28;69.06
11053;BME280;55230;42.602;23.470;2023-12-28T13:42:08;94317.69;;;6.25;70.00
11053;BME280;55230;42.602;23.470;2023-12-28T13:44:34;94321.75;;;6.17;68.56
11053;BME280;55230;42.602;23.470;2023-12-28T13:47:03;94322.16;;;6.11;69.16
11053;BME280;55230;42.602;23.470;2023-12-28T13:49:31;94315.00;;;5.99;70.09
11053;BME280;55230;42.602;23.470;2023-12-28T13:51:56;94321.19;;;5.98;68.92
11053;BME280;55230;42.602;23.470;2023-12-28T13:54:21;94318.97;;;5.83;69.61
11053;BME280;55230;42.602;23.470;2023-12-28T13:56:47;94307.84;;;5.74;69.66
11053;BME280;55230;42.602;23.470;2023-12-28T13:59:13;94307.63;;;5.84;69.57
11053;BME280;55230;42.602;23.470;2023-12-28T14:01:39;94314.19;;;5.90;69.25
11053;BME280;55230;42.602;23.470;2023-12-28T14:04:05;94319.72;;;5.83;69.49
11053;BME280;55230;42.602;23.470;2023-12-28T14:06:31;94319.53;;;5.80;69.20
11053;BME280;55230;42.602;23.470;2023-12-28T14:08:56;94322.00;;;5.85;68.76
11053;BME280;55230;42.602;23.470;2023-12-28T14:11:23;94324.59;;;5.71;69.10